Overview Statistics Trail Chart Weather Telemetry Raw packets
 

This is the latest recevied weather packets stored in our database for station/object K7MT-WX. If no packets are shown the sender has not sent any weather packets the latest 10 day(s).

<< 29 30 31 32 33 34 35 >>
Time Temp. Humidity Pressure Rain* Wind** Luminosity Snow
1787949000 27.78° C 37% 1013.9 hPa 0 mm - - -
1787948100 27.22° C 39% 1014 hPa 0 mm - - -
1787947200 27.22° C 40% 1014.1 hPa 0 mm - - -
1787946300 26.11° C 44% 1014.5 hPa 0 mm - - -
1787945400 25.56° C 45% 1014.6 hPa 0 mm - - -
1787944500 24.44° C 47% 1014.7 hPa 0 mm - - -
1787943600 23.89° C 51% 1015 hPa 0 mm - - -
1787942700 22.78° C 53% 1015.3 hPa 0 mm - - -
1787941800 21.11° C 56% 1015.7 hPa 0 mm - - -
1787940900 21.67° C 55% 1015.8 hPa 0 mm - - -
1787940000 21.11° C 56% 1015.9 hPa 0 mm - - -
1787939100 20° C 59% 1016.2 hPa 0 mm - - -
1787938200 19.44° C 57% 1016.2 hPa 0 mm - - -
1787937300 18.33° C 61% 1016.2 hPa 0 mm - - -
1787936400 17.78° C 63% 1016.3 hPa 0 mm - - -
1787935500 17.22° C 64% 1016.2 hPa 0 mm - - -
1787934600 16.67° C 66% 1016.1 hPa 0 mm - - -
1787933700 16.11° C 69% 1016.3 hPa 0 mm - - -
1787932800 15.56° C 71% 1016.1 hPa 0 mm - - -
1787931900 15° C 72% 1016.2 hPa 0 mm - - -
1787931000 15° C 72% 1016.3 hPa 0 mm - - -
1787930100 15° C 70% 1016.3 hPa 0 mm - - -
1787929205 14.44° C 71% 1016.3 hPa 0 mm - - -
1787928300 13.89° C 73% 1016.4 hPa 0 mm - - -
1787927400 13.33° C 77% 1016.2 hPa 0 mm - - -

* Rain latest hour (hover to see other rain measurements)
** Current wind speed in m/s (hover to see current wind gust speed)